sensor_id;sensor_type;location;lat;lon;timestamp;temperature;humidity
14236;DHT22;7202;50.718;7.072;2023-04-03T00:01:38;4.80;99.90
14236;DHT22;7202;50.718;7.072;2023-04-03T00:04:07;4.90;99.90
14236;DHT22;7202;50.718;7.072;2023-04-03T00:06:36;4.90;99.90
14236;DHT22;7202;50.718;7.072;2023-04-03T00:09:06;4.90;99.90
14236;DHT22;7202;50.718;7.072;2023-04-03T00:11:36;4.90;99.90
14236;DHT22;7202;50.718;7.072;2023-04-03T00:14:05;5.00;99.90
14236;DHT22;7202;50.718;7.072;2023-04-03T00:16:34;5.10;99.90
14236;DHT22;7202;50.718;7.072;2023-04-03T00:19:02;5.00;99.90
14236;DHT22;7202;50.718;7.072;2023-04-03T00:21:31;5.00;99.90
14236;DHT22;7202;50.718;7.072;2023-04-03T00:23:59;5.00;99.90
14236;DHT22;7202;50.718;7.072;2023-04-03T00:26:29;5.00;99.90
14236;DHT22;7202;50.718;7.072;2023-04-03T00:28:58;5.10;99.90
14236;DHT22;7202;50.718;7.072;2023-04-03T00:31:27;5.00;99.90
14236;DHT22;7202;50.718;7.072;2023-04-03T00:33:55;5.10;99.90
14236;DHT22;7202;50.718;7.072;2023-04-03T00:36:24;5.00;99.90
14236;DHT22;7202;50.718;7.072;2023-04-03T00:38:53;5.00;99.90
14236;DHT22;7202;50.718;7.072;2023-04-03T00:41:22;5.00;99.90
14236;DHT22;7202;50.718;7.072;2023-04-03T00:43:52;5.10;99.90
14236;DHT22;7202;50.718;7.072;2023-04-03T00:46:21;5.10;99.90
14236;DHT22;7202;50.718;7.072;2023-04-03T00:48:50;5.10;99.90
14236;DHT22;7202;50.718;7.072;2023-04-03T00:51:21;5.20;99.90
14236;DHT22;7202;50.718;7.072;2023-04-03T00:53:54;5.10;99.90
14236;DHT22;7202;50.718;7.072;2023-04-03T00:56:27;5.00;99.90
14236;DHT22;7202;50.718;7.072;2023-04-03T00:58:59;5.00;99.90
14236;DHT22;7202;50.718;7.072;2023-04-03T01:01:30;5.10;99.90
14236;DHT22;7202;50.718;7.072;2023-04-03T01:03:59;5.00;99.90
14236;DHT22;7202;50.718;7.072;2023-04-03T01:06:33;5.00;99.90
14236;DHT22;7202;50.718;7.072;2023-04-03T01:09:06;5.00;99.90
14236;DHT22;7202;50.718;7.072;2023-04-03T01:11:35;5.00;99.90
14236;DHT22;7202;50.718;7.072;2023-04-03T01:14:05;4.90;99.90
14236;DHT22;7202;50.718;7.072;2023-04-03T01:16:34;4.90;99.90
14236;DHT22;7202;50.718;7.072;2023-04-03T01:19:03;4.90;99.90
14236;DHT22;7202;50.718;7.072;2023-04-03T01:24:41;4.90;99.90
14236;DHT22;7202;50.718;7.072;2023-04-03T01:27:11;4.90;99.90
14236;DHT22;7202;50.718;7.072;2023-04-03T01:29:42;4.90;99.90
14236;DHT22;7202;50.718;7.072;2023-04-03T01:32:13;4.80;99.90
14236;DHT22;7202;50.718;7.072;2023-04-03T01:34:42;4.90;99.90
14236;DHT22;7202;50.718;7.072;2023-04-03T01:37:10;4.90;99.90
14236;DHT22;7202;50.718;7.072;2023-04-03T01:39:39;4.70;99.90
14236;DHT22;7202;50.718;7.072;2023-04-03T01:42:08;4.80;99.90
14236;DHT22;7202;50.718;7.072;2023-04-03T01:44:40;4.80;99.90
14236;DHT22;7202;50.718;7.072;2023-04-03T01:47:08;4.80;99.90
14236;DHT22;7202;50.718;7.072;2023-04-03T01:49:40;4.80;99.90
14236;DHT22;7202;50.718;7.072;2023-04-03T01:52:09;4.70;99.90
14236;DHT22;7202;50.718;7.072;2023-04-03T01:54:37;4.70;99.90
14236;DHT22;7202;50.718;7.072;2023-04-03T01:57:06;4.70;99.90
14236;DHT22;7202;50.718;7.072;2023-04-03T01:59:36;4.70;99.90
14236;DHT22;7202;50.718;7.072;2023-04-03T02:02:04;4.70;99.90
14236;DHT22;7202;50.718;7.072;2023-04-03T02:04:33;4.70;99.90
14236;DHT22;7202;50.718;7.072;2023-04-03T02:07:03;4.70;99.90
14236;DHT22;7202;50.718;7.072;2023-04-03T02:09:33;4.70;99.90
14236;DHT22;7202;50.718;7.072;2023-04-03T02:12:02;4.60;99.90
14236;DHT22;7202;50.718;7.072;2023-04-03T02:14:32;4.60;99.90
14236;DHT22;7202;50.718;7.072;2023-04-03T02:17:01;4.60;99.90
14236;DHT22;7202;50.718;7.072;2023-04-03T02:19:32;4.50;99.90
14236;DHT22;7202;50.718;7.072;2023-04-03T02:22:00;4.50;99.90
14236;DHT22;7202;50.718;7.072;2023-04-03T02:24:31;4.50;99.90
14236;DHT22;7202;50.718;7.072;2023-04-03T02:27:00;4.40;99.90
14236;DHT22;7202;50.718;7.072;2023-04-03T02:29:29;4.40;99.90
14236;DHT22;7202;50.718;7.072;2023-04-03T02:31:57;4.40;99.90
14236;DHT22;7202;50.718;7.072;2023-04-03T02:34:26;4.40;99.90
14236;DHT22;7202;50.718;7.072;2023-04-03T02:36:56;4.40;99.90
14236;DHT22;7202;50.718;7.072;2023-04-03T02:39:25;4.40;99.90
14236;DHT22;7202;50.718;7.072;2023-04-03T02:41:56;4.40;99.90
14236;DHT22;7202;50.718;7.072;2023-04-03T02:44:25;4.40;99.90
14236;DHT22;7202;50.718;7.072;2023-04-03T02:46:54;4.30;99.90
14236;DHT22;7202;50.718;7.072;2023-04-03T02:49:23;4.30;99.90
14236;DHT22;7202;50.718;7.072;2023-04-03T02:51:52;4.30;99.90
14236;DHT22;7202;50.718;7.072;2023-04-03T02:54:20;4.30;99.90
14236;DHT22;7202;50.718;7.072;2023-04-03T02:56:54;4.30;99.90
14236;DHT22;7202;50.718;7.072;2023-04-03T02:59:24;4.20;99.90
14236;DHT22;7202;50.718;7.072;2023-04-03T03:01:53;4.30;99.90
14236;DHT22;7202;50.718;7.072;2023-04-03T03:04:23;4.20;99.90
14236;DHT22;7202;50.718;7.072;2023-04-03T03:06:51;4.20;99.90
14236;DHT22;7202;50.718;7.072;2023-04-03T03:09:20;4.20;99.90
14236;DHT22;7202;50.718;7.072;2023-04-03T03:11:49;4.20;99.90
14236;DHT22;7202;50.718;7.072;2023-04-03T03:14:18;4.10;99.90
14236;DHT22;7202;50.718;7.072;2023-04-03T03:16:47;4.10;99.90
14236;DHT22;7202;50.718;7.072;2023-04-03T03:19:17;4.10;99.90
14236;DHT22;7202;50.718;7.072;2023-04-03T03:21:45;4.00;99.90
14236;DHT22;7202;50.718;7.072;2023-04-03T03:24:14;4.00;99.90
14236;DHT22;7202;50.718;7.072;2023-04-03T03:26:43;4.00;99.90
14236;DHT22;7202;50.718;7.072;2023-04-03T03:29:12;3.90;99.90
14236;DHT22;7202;50.718;7.072;2023-04-03T03:31:40;3.90;99.90
14236;DHT22;7202;50.718;7.072;2023-04-03T03:34:10;3.90;99.90
14236;DHT22;7202;50.718;7.072;2023-04-03T03:36:39;4.00;99.90
14236;DHT22;7202;50.718;7.072;2023-04-03T03:39:08;4.00;99.90
14236;DHT22;7202;50.718;7.072;2023-04-03T03:41:37;4.00;99.90
14236;DHT22;7202;50.718;7.072;2023-04-03T03:44:06;4.00;99.90
14236;DHT22;7202;50.718;7.072;2023-04-03T03:46:35;3.90;99.90
14236;DHT22;7202;50.718;7.072;2023-04-03T03:49:04;3.90;99.90
14236;DHT22;7202;50.718;7.072;2023-04-03T03:51:34;3.90;99.90
14236;DHT22;7202;50.718;7.072;2023-04-03T03:54:04;3.90;99.90
14236;DHT22;7202;50.718;7.072;2023-04-03T03:56:33;3.90;99.90
14236;DHT22;7202;50.718;7.072;2023-04-03T03:59:02;3.90;99.90
14236;DHT22;7202;50.718;7.072;2023-04-03T04:01:32;3.90;99.90
14236;DHT22;7202;50.718;7.072;2023-04-03T04:04:02;3.80;99.90
14236;DHT22;7202;50.718;7.072;2023-04-03T04:06:31;3.80;99.90
14236;DHT22;7202;50.718;7.072;2023-04-03T04:09:05;3.70;99.90
14236;DHT22;7202;50.718;7.072;2023-04-03T04:11:34;3.70;99.90
14236;DHT22;7202;50.718;7.072;2023-04-03T04:14:03;3.70;99.90
14236;DHT22;7202;50.718;7.072;2023-04-03T04:16:32;3.60;99.90
14236;DHT22;7202;50.718;7.072;2023-04-03T04:19:06;3.60;99.90
14236;DHT22;7202;50.718;7.072;2023-04-03T04:21:36;3.60;99.90
14236;DHT22;7202;50.718;7.072;2023-04-03T04:24:08;3.60;99.90
14236;DHT22;7202;50.718;7.072;2023-04-03T04:26:38;3.50;99.90
14236;DHT22;7202;50.718;7.072;2023-04-03T04:29:09;3.50;99.90
14236;DHT22;7202;50.718;7.072;2023-04-03T04:31:38;3.40;99.90
14236;DHT22;7202;50.718;7.072;2023-04-03T04:34:07;3.40;99.90
14236;DHT22;7202;50.718;7.072;2023-04-03T04:36:37;3.30;99.90
14236;DHT22;7202;50.718;7.072;2023-04-03T04:39:08;3.30;99.90
14236;DHT22;7202;50.718;7.072;2023-04-03T04:41:37;3.30;99.90
14236;DHT22;7202;50.718;7.072;2023-04-03T04:44:06;3.30;99.90
14236;DHT22;7202;50.718;7.072;2023-04-03T04:46:36;3.30;99.90
14236;DHT22;7202;50.718;7.072;2023-04-03T04:49:06;3.30;99.90
14236;DHT22;7202;50.718;7.072;2023-04-03T04:51:35;3.30;99.90
14236;DHT22;7202;50.718;7.072;2023-04-03T04:54:20;3.40;99.90
14236;DHT22;7202;50.718;7.072;2023-04-03T04:56:50;3.30;99.90
14236;DHT22;7202;50.718;7.072;2023-04-03T04:59:19;3.30;99.90
14236;DHT22;7202;50.718;7.072;2023-04-03T05:01:50;3.30;99.90
14236;DHT22;7202;50.718;7.072;2023-04-03T05:04:19;3.30;99.90
14236;DHT22;7202;50.718;7.072;2023-04-03T05:06:52;3.40;99.90
14236;DHT22;7202;50.718;7.072;2023-04-03T05:09:26;3.40;99.90
14236;DHT22;7202;50.718;7.072;2023-04-03T05:11:55;3.30;99.90
14236;DHT22;7202;50.718;7.072;2023-04-03T05:14:27;3.30;99.90
14236;DHT22;7202;50.718;7.072;2023-04-03T05:17:01;3.30;99.90
14236;DHT22;7202;50.718;7.072;2023-04-03T05:19:33;3.20;99.90
14236;DHT22;7202;50.718;7.072;2023-04-03T05:22:03;3.20;99.90
14236;DHT22;7202;50.718;7.072;2023-04-03T05:24:33;3.20;99.90
14236;DHT22;7202;50.718;7.072;2023-04-03T05:27:03;3.10;99.90
14236;DHT22;7202;50.718;7.072;2023-04-03T05:29:35;3.20;99.90
14236;DHT22;7202;50.718;7.072;2023-04-03T05:32:05;3.30;99.90
14236;DHT22;7202;50.718;7.072;2023-04-03T05:34:34;3.20;99.90
14236;DHT22;7202;50.718;7.072;2023-04-03T05:37:03;3.20;99.90
14236;DHT22;7202;50.718;7.072;2023-04-03T05:39:34;3.30;99.90
14236;DHT22;7202;50.718;7.072;2023-04-03T05:42:05;3.30;99.90
14236;DHT22;7202;50.718;7.072;2023-04-03T05:44:34;3.30;99.90
14236;DHT22;7202;50.718;7.072;2023-04-03T05:47:04;3.30;99.90
14236;DHT22;7202;50.718;7.072;2023-04-03T05:49:33;3.40;99.90
14236;DHT22;7202;50.718;7.072;2023-04-03T05:52:02;3.40;99.90
14236;DHT22;7202;50.718;7.072;2023-04-03T05:54:33;3.50;99.90
14236;DHT22;7202;50.718;7.072;2023-04-03T05:57:12;3.50;99.90
14236;DHT22;7202;50.718;7.072;2023-04-03T05:59:42;3.60;99.90
14236;DHT22;7202;50.718;7.072;2023-04-03T06:02:13;3.60;99.90
14236;DHT22;7202;50.718;7.072;2023-04-03T06:04:43;3.60;99.90
14236;DHT22;7202;50.718;7.072;2023-04-03T06:07:14;3.60;99.90
14236;DHT22;7202;50.718;7.072;2023-04-03T06:09:45;3.70;99.90
14236;DHT22;7202;50.718;7.072;2023-04-03T06:12:14;3.80;99.90
14236;DHT22;7202;50.718;7.072;2023-04-03T06:14:43;4.00;99.90
14236;DHT22;7202;50.718;7.072;2023-04-03T06:17:13;4.10;99.90
14236;DHT22;7202;50.718;7.072;2023-04-03T06:19:43;4.20;99.90
14236;DHT22;7202;50.718;7.072;2023-04-03T06:22:13;4.30;99.90
14236;DHT22;7202;50.718;7.072;2023-04-03T06:24:42;4.40;99.90
14236;DHT22;7202;50.718;7.072;2023-04-03T06:27:12;4.50;99.90
14236;DHT22;7202;50.718;7.072;2023-04-03T06:29:41;4.70;99.90
14236;DHT22;7202;50.718;7.072;2023-04-03T06:32:10;4.80;99.90
14236;DHT22;7202;50.718;7.072;2023-04-03T06:34:39;4.80;99.90
14236;DHT22;7202;50.718;7.072;2023-04-03T06:37:10;4.90;99.90
14236;DHT22;7202;50.718;7.072;2023-04-03T06:39:42;4.90;99.90
14236;DHT22;7202;50.718;7.072;2023-04-03T06:42:12;5.00;99.90
14236;DHT22;7202;50.718;7.072;2023-04-03T06:44:51;5.00;99.90
14236;DHT22;7202;50.718;7.072;2023-04-03T06:47:21;5.00;99.90
14236;DHT22;7202;50.718;7.072;2023-04-03T06:49:50;5.10;99.90
14236;DHT22;7202;50.718;7.072;2023-04-03T06:52:19;5.10;99.90
14236;DHT22;7202;50.718;7.072;2023-04-03T06:54:48;5.10;99.90
14236;DHT22;7202;50.718;7.072;2023-04-03T06:57:18;5.10;99.90
14236;DHT22;7202;50.718;7.072;2023-04-03T06:59:46;5.10;99.90
14236;DHT22;7202;50.718;7.072;2023-04-03T07:02:15;5.20;99.90
14236;DHT22;7202;50.718;7.072;2023-04-03T07:04:44;5.20;99.90
14236;DHT22;7202;50.718;7.072;2023-04-03T07:07:12;5.30;99.90
14236;DHT22;7202;50.718;7.072;2023-04-03T07:09:42;5.30;99.90
14236;DHT22;7202;50.718;7.072;2023-04-03T07:12:11;5.20;99.90
14236;DHT22;7202;50.718;7.072;2023-04-03T07:14:41;5.20;99.90
14236;DHT22;7202;50.718;7.072;2023-04-03T07:17:10;5.20;99.90
14236;DHT22;7202;50.718;7.072;2023-04-03T07:19:38;5.20;99.90
14236;DHT22;7202;50.718;7.072;2023-04-03T07:22:07;5.30;99.90
14236;DHT22;7202;50.718;7.072;2023-04-03T07:24:36;5.30;99.90
14236;DHT22;7202;50.718;7.072;2023-04-03T07:27:05;5.30;99.90
14236;DHT22;7202;50.718;7.072;2023-04-03T07:29:35;5.20;99.90
14236;DHT22;7202;50.718;7.072;2023-04-03T07:32:06;5.40;99.90
14236;DHT22;7202;50.718;7.072;2023-04-03T07:34:34;5.30;99.90
14236;DHT22;7202;50.718;7.072;2023-04-03T07:37:03;5.40;99.90
14236;DHT22;7202;50.718;7.072;2023-04-03T07:39:32;5.40;99.90
14236;DHT22;7202;50.718;7.072;2023-04-03T07:42:01;5.30;99.90
14236;DHT22;7202;50.718;7.072;2023-04-03T07:44:29;5.40;99.90
14236;DHT22;7202;50.718;7.072;2023-04-03T07:46:58;5.50;99.90
14236;DHT22;7202;50.718;7.072;2023-04-03T07:49:28;5.50;99.90
14236;DHT22;7202;50.718;7.072;2023-04-03T07:51:57;5.50;99.90
14236;DHT22;7202;50.718;7.072;2023-04-03T07:54:25;5.60;99.90
14236;DHT22;7202;50.718;7.072;2023-04-03T07:56:54;5.60;99.90
14236;DHT22;7202;50.718;7.072;2023-04-03T07:59:24;5.60;99.90
14236;DHT22;7202;50.718;7.072;2023-04-03T08:01:52;5.70;99.90
14236;DHT22;7202;50.718;7.072;2023-04-03T08:04:21;5.70;99.90
14236;DHT22;7202;50.718;7.072;2023-04-03T08:06:51;5.80;99.90
14236;DHT22;7202;50.718;7.072;2023-04-03T08:09:20;5.80;99.90
14236;DHT22;7202;50.718;7.072;2023-04-03T08:11:49;5.90;99.90
14236;DHT22;7202;50.718;7.072;2023-04-03T08:14:21;5.90;99.90
14236;DHT22;7202;50.718;7.072;2023-04-03T08:16:49;6.00;99.90
14236;DHT22;7202;50.718;7.072;2023-04-03T08:19:18;6.00;99.90
14236;DHT22;7202;50.718;7.072;2023-04-03T08:21:54;6.10;99.90
14236;DHT22;7202;50.718;7.072;2023-04-03T08:24:24;6.10;99.90
14236;DHT22;7202;50.718;7.072;2023-04-03T08:26:52;6.20;99.90
14236;DHT22;7202;50.718;7.072;2023-04-03T08:29:21;6.30;99.90
14236;DHT22;7202;50.718;7.072;2023-04-03T08:31:50;6.40;99.90
14236;DHT22;7202;50.718;7.072;2023-04-03T08:34:19;6.40;99.90
14236;DHT22;7202;50.718;7.072;2023-04-03T08:36:48;6.50;99.90
14236;DHT22;7202;50.718;7.072;2023-04-03T08:39:19;6.60;99.90
14236;DHT22;7202;50.718;7.072;2023-04-03T08:41:47;6.80;99.90
14236;DHT22;7202;50.718;7.072;2023-04-03T08:44:24;6.80;99.90
14236;DHT22;7202;50.718;7.072;2023-04-03T08:47:04;6.90;99.90
14236;DHT22;7202;50.718;7.072;2023-04-03T08:49:41;6.90;99.90
14236;DHT22;7202;50.718;7.072;2023-04-03T08:52:18;7.00;99.90
14236;DHT22;7202;50.718;7.072;2023-04-03T08:54:51;7.10;99.90
14236;DHT22;7202;50.718;7.072;2023-04-03T08:57:28;7.10;99.90
14236;DHT22;7202;50.718;7.072;2023-04-03T08:59:59;7.20;99.90
14236;DHT22;7202;50.718;7.072;2023-04-03T09:02:33;7.10;99.90
14236;DHT22;7202;50.718;7.072;2023-04-03T09:05:11;7.10;99.90
14236;DHT22;7202;50.718;7.072;2023-04-03T09:07:43;7.10;99.90
14236;DHT22;7202;50.718;7.072;2023-04-03T09:10:23;7.10;99.90
14236;DHT22;7202;50.718;7.072;2023-04-03T09:12:57;7.20;99.90
14236;DHT22;7202;50.718;7.072;2023-04-03T09:15:28;7.20;99.90
14236;DHT22;7202;50.718;7.072;2023-04-03T09:18:13;7.30;99.90
14236;DHT22;7202;50.718;7.072;2023-04-03T09:20:48;7.30;99.90
14236;DHT22;7202;50.718;7.072;2023-04-03T09:23:23;7.30;99.90
14236;DHT22;7202;50.718;7.072;2023-04-03T09:25:58;7.30;99.90
14236;DHT22;7202;50.718;7.072;2023-04-03T09:28:34;7.30;99.90
14236;DHT22;7202;50.718;7.072;2023-04-03T09:31:20;7.30;99.90
14236;DHT22;7202;50.718;7.072;2023-04-03T09:33:50;7.30;99.90
14236;DHT22;7202;50.718;7.072;2023-04-03T09:36:43;7.30;99.90
14236;DHT22;7202;50.718;7.072;2023-04-03T09:39:15;7.30;99.90
14236;DHT22;7202;50.718;7.072;2023-04-03T09:41:57;7.40;99.90
14236;DHT22;7202;50.718;7.072;2023-04-03T09:44:29;7.50;99.90
14236;DHT22;7202;50.718;7.072;2023-04-03T09:46:58;7.60;99.90
14236;DHT22;7202;50.718;7.072;2023-04-03T09:49:27;7.70;99.90
14236;DHT22;7202;50.718;7.072;2023-04-03T09:51:56;7.80;99.90
14236;DHT22;7202;50.718;7.072;2023-04-03T09:54:33;7.90;99.90
14236;DHT22;7202;50.718;7.072;2023-04-03T09:57:08;8.00;99.90
14236;DHT22;7202;50.718;7.072;2023-04-03T09:59:44;8.00;99.90
14236;DHT22;7202;50.718;7.072;2023-04-03T10:02:33;8.00;99.90
14236;DHT22;7202;50.718;7.072;2023-04-03T10:05:04;8.00;99.90
14236;DHT22;7202;50.718;7.072;2023-04-03T10:07:37;8.00;99.90
14236;DHT22;7202;50.718;7.072;2023-04-03T10:10:18;8.10;99.90
14236;DHT22;7202;50.718;7.072;2023-04-03T10:12:49;8.20;99.90
14236;DHT22;7202;50.718;7.072;2023-04-03T10:15:36;8.30;99.90
14236;DHT22;7202;50.718;7.072;2023-04-03T10:18:09;8.30;99.90
14236;DHT22;7202;50.718;7.072;2023-04-03T10:20:51;8.30;99.90
14236;DHT22;7202;50.718;7.072;2023-04-03T10:23:24;8.20;99.90
14236;DHT22;7202;50.718;7.072;2023-04-03T10:26:02;8.30;99.90
14236;DHT22;7202;50.718;7.072;2023-04-03T10:28:46;8.40;99.90
14236;DHT22;7202;50.718;7.072;2023-04-03T10:31:25;8.50;99.90
14236;DHT22;7202;50.718;7.072;2023-04-03T10:34:02;8.60;99.90
14236;DHT22;7202;50.718;7.072;2023-04-03T10:36:38;8.70;99.90
14236;DHT22;7202;50.718;7.072;2023-04-03T10:39:18;8.70;99.90
14236;DHT22;7202;50.718;7.072;2023-04-03T10:41:59;8.80;99.90
14236;DHT22;7202;50.718;7.072;2023-04-03T10:45:08;8.90;99.90
14236;DHT22;7202;50.718;7.072;2023-04-03T10:47:49;9.00;99.90
14236;DHT22;7202;50.718;7.072;2023-04-03T10:50:31;9.10;99.90
14236;DHT22;7202;50.718;7.072;2023-04-03T10:53:08;9.10;99.90
14236;DHT22;7202;50.718;7.072;2023-04-03T10:55:45;9.10;99.90
14236;DHT22;7202;50.718;7.072;2023-04-03T10:58:18;9.20;99.90
14236;DHT22;7202;50.718;7.072;2023-04-03T11:00:52;9.30;99.90
14236;DHT22;7202;50.718;7.072;2023-04-03T11:03:29;9.40;99.90
14236;DHT22;7202;50.718;7.072;2023-04-03T11:06:02;9.50;99.90
14236;DHT22;7202;50.718;7.072;2023-04-03T11:08:34;9.50;99.90
14236;DHT22;7202;50.718;7.072;2023-04-03T11:11:06;9.60;99.90
14236;DHT22;7202;50.718;7.072;2023-04-03T11:13:40;9.60;99.90
14236;DHT22;7202;50.718;7.072;2023-04-03T11:16:14;9.50;99.90
14236;DHT22;7202;50.718;7.072;2023-04-03T11:18:47;9.40;99.90
14236;DHT22;7202;50.718;7.072;2023-04-03T11:21:21;9.50;99.90
14236;DHT22;7202;50.718;7.072;2023-04-03T11:23:53;9.50;99.90
14236;DHT22;7202;50.718;7.072;2023-04-03T11:26:28;9.50;99.90
14236;DHT22;7202;50.718;7.072;2023-04-03T11:29:00;9.50;99.90
14236;DHT22;7202;50.718;7.072;2023-04-03T11:31:41;9.50;99.90
14236;DHT22;7202;50.718;7.072;2023-04-03T11:34:23;9.70;99.90
14236;DHT22;7202;50.718;7.072;2023-04-03T11:36:57;9.50;99.90
14236;DHT22;7202;50.718;7.072;2023-04-03T11:39:30;9.60;99.90
14236;DHT22;7202;50.718;7.072;2023-04-03T11:42:14;9.60;99.90
14236;DHT22;7202;50.718;7.072;2023-04-03T11:44:44;9.70;99.90
14236;DHT22;7202;50.718;7.072;2023-04-03T11:47:43;9.70;99.90
14236;DHT22;7202;50.718;7.072;2023-04-03T11:50:30;9.60;99.90
14236;DHT22;7202;50.718;7.072;2023-04-03T11:55:58;9.60;99.90
14236;DHT22;7202;50.718;7.072;2023-04-03T11:58:29;9.50;99.90
14236;DHT22;7202;50.718;7.072;2023-04-03T12:01:04;9.50;99.90
14236;DHT22;7202;50.718;7.072;2023-04-03T12:07:12;9.60;99.90
14236;DHT22;7202;50.718;7.072;2023-04-03T12:10:15;9.70;99.90
14236;DHT22;7202;50.718;7.072;2023-04-03T12:13:00;9.80;99.90
14236;DHT22;7202;50.718;7.072;2023-04-03T12:15:50;9.90;99.90
14236;DHT22;7202;50.718;7.072;2023-04-03T12:19:00;9.90;99.90
14236;DHT22;7202;50.718;7.072;2023-04-03T12:22:04;10.00;99.90
14236;DHT22;7202;50.718;7.072;2023-04-03T12:24:37;9.90;99.90
14236;DHT22;7202;50.718;7.072;2023-04-03T12:27:21;9.90;99.90
14236;DHT22;7202;50.718;7.072;2023-04-03T12:29:55;9.90;99.90
14236;DHT22;7202;50.718;7.072;2023-04-03T12:32:43;9.90;99.90
14236;DHT22;7202;50.718;7.072;2023-04-03T12:35:21;9.90;99.90
14236;DHT22;7202;50.718;7.072;2023-04-03T12:38:14;9.90;99.90
14236;DHT22;7202;50.718;7.072;2023-04-03T12:40:50;9.80;99.90
14236;DHT22;7202;50.718;7.072;2023-04-03T12:43:38;9.80;99.90
14236;DHT22;7202;50.718;7.072;2023-04-03T12:46:13;9.90;99.90
14236;DHT22;7202;50.718;7.072;2023-04-03T12:48:49;10.00;99.90
14236;DHT22;7202;50.718;7.072;2023-04-03T12:51:20;10.20;99.90
14236;DHT22;7202;50.718;7.072;2023-04-03T12:53:51;10.30;99.90
14236;DHT22;7202;50.718;7.072;2023-04-03T12:56:24;10.30;99.90
14236;DHT22;7202;50.718;7.072;2023-04-03T12:58:55;10.30;99.90
14236;DHT22;7202;50.718;7.072;2023-04-03T13:01:25;10.30;99.90
14236;DHT22;7202;50.718;7.072;2023-04-03T13:03:56;10.30;99.90
14236;DHT22;7202;50.718;7.072;2023-04-03T13:06:28;10.30;99.20
14236;DHT22;7202;50.718;7.072;2023-04-03T13:09:00;10.30;99.90
14236;DHT22;7202;50.718;7.072;2023-04-03T13:11:34;10.60;99.90
14236;DHT22;7202;50.718;7.072;2023-04-03T13:14:15;10.30;98.60
14236;DHT22;7202;50.718;7.072;2023-04-03T13:16:53;10.30;99.20
14236;DHT22;7202;50.718;7.072;2023-04-03T13:19:23;10.40;99.90
14236;DHT22;7202;50.718;7.072;2023-04-03T13:22:01;10.50;99.90
14236;DHT22;7202;50.718;7.072;2023-04-03T13:24:33;10.50;99.90
14236;DHT22;7202;50.718;7.072;2023-04-03T13:27:06;10.50;99.90
14236;DHT22;7202;50.718;7.072;2023-04-03T13:29:36;10.60;99.90
14236;DHT22;7202;50.718;7.072;2023-04-03T13:32:06;10.60;99.90
14236;DHT22;7202;50.718;7.072;2023-04-03T13:34:37;10.70;99.90
14236;DHT22;7202;50.718;7.072;2023-04-03T13:37:11;10.80;99.90
14236;DHT22;7202;50.718;7.072;2023-04-03T13:39:57;10.80;99.90
14236;DHT22;7202;50.718;7.072;2023-04-03T13:42:29;10.90;99.90
14236;DHT22;7202;50.718;7.072;2023-04-03T13:45:18;10.80;99.90
14236;DHT22;7202;50.718;7.072;2023-04-03T13:47:49;10.90;99.90
14236;DHT22;7202;50.718;7.072;2023-04-03T13:50:20;10.90;99.90
14236;DHT22;7202;50.718;7.072;2023-04-03T13:52:53;10.90;99.90
14236;DHT22;7202;50.718;7.072;2023-04-03T13:55:24;10.90;99.90
14236;DHT22;7202;50.718;7.072;2023-04-03T13:57:57;10.90;99.90
14236;DHT22;7202;50.718;7.072;2023-04-03T14:00:33;10.80;99.80
14236;DHT22;7202;50.718;7.072;2023-04-03T14:03:12;10.80;99.90
14236;DHT22;7202;50.718;7.072;2023-04-03T14:05:41;10.70;99.90
14236;DHT22;7202;50.718;7.072;2023-04-03T14:08:10;10.70;99.90
14236;DHT22;7202;50.718;7.072;2023-04-03T14:10:39;10.70;99.90
14236;DHT22;7202;50.718;7.072;2023-04-03T14:13:12;10.80;99.90
14236;DHT22;7202;50.718;7.072;2023-04-03T14:15:42;10.80;99.60
14236;DHT22;7202;50.718;7.072;2023-04-03T14:18:12;10.80;99.90
14236;DHT22;7202;50.718;7.072;2023-04-03T14:20:41;10.80;99.90
14236;DHT22;7202;50.718;7.072;2023-04-03T14:23:11;10.70;99.90
14236;DHT22;7202;50.718;7.072;2023-04-03T14:25:40;10.80;99.90
14236;DHT22;7202;50.718;7.072;2023-04-03T14:28:17;10.80;99.90
14236;DHT22;7202;50.718;7.072;2023-04-03T14:30:47;10.80;99.90
14236;DHT22;7202;50.718;7.072;2023-04-03T14:33:19;10.70;99.90
14236;DHT22;7202;50.718;7.072;2023-04-03T14:35:48;10.70;99.90
14236;DHT22;7202;50.718;7.072;2023-04-03T14:38:23;10.70;99.90
14236;DHT22;7202;50.718;7.072;2023-04-03T14:40:54;10.70;99.90
14236;DHT22;7202;50.718;7.072;2023-04-03T14:43:34;10.80;99.90
14236;DHT22;7202;50.718;7.072;2023-04-03T14:46:02;10.70;99.90
14236;DHT22;7202;50.718;7.072;2023-04-03T14:48:31;10.60;99.90
14236;DHT22;7202;50.718;7.072;2023-04-03T14:51:00;10.70;99.90
14236;DHT22;7202;50.718;7.072;2023-04-03T14:53:32;10.70;99.90
14236;DHT22;7202;50.718;7.072;2023-04-03T14:56:11;10.70;99.90
14236;DHT22;7202;50.718;7.072;2023-04-03T14:58:42;10.70;99.90
14236;DHT22;7202;50.718;7.072;2023-04-03T15:01:11;10.70;99.90
14236;DHT22;7202;50.718;7.072;2023-04-03T15:03:41;10.70;99.90
14236;DHT22;7202;50.718;7.072;2023-04-03T15:06:12;10.70;99.90
14236;DHT22;7202;50.718;7.072;2023-04-03T15:08:41;10.60;99.90
14236;DHT22;7202;50.718;7.072;2023-04-03T15:11:11;10.60;99.90
14236;DHT22;7202;50.718;7.072;2023-04-03T15:13:41;10.60;99.90
14236;DHT22;7202;50.718;7.072;2023-04-03T15:16:15;10.60;99.90
14236;DHT22;7202;50.718;7.072;2023-04-03T15:18:46;10.60;99.40
14236;DHT22;7202;50.718;7.072;2023-04-03T15:21:15;10.60;99.40
14236;DHT22;7202;50.718;7.072;2023-04-03T15:23:44;10.50;99.90
14236;DHT22;7202;50.718;7.072;2023-04-03T15:26:13;10.50;99.90
14236;DHT22;7202;50.718;7.072;2023-04-03T15:28:44;10.50;99.90
14236;DHT22;7202;50.718;7.072;2023-04-03T15:31:13;10.50;99.90
14236;DHT22;7202;50.718;7.072;2023-04-03T15:33:42;10.50;99.90
14236;DHT22;7202;50.718;7.072;2023-04-03T15:36:10;10.40;99.90
14236;DHT22;7202;50.718;7.072;2023-04-03T15:38:59;10.40;99.90
14236;DHT22;7202;50.718;7.072;2023-04-03T15:41:28;10.30;99.90
14236;DHT22;7202;50.718;7.072;2023-04-03T15:43:58;10.30;99.90
14236;DHT22;7202;50.718;7.072;2023-04-03T15:46:26;10.20;99.90
14236;DHT22;7202;50.718;7.072;2023-04-03T15:48:55;10.20;99.90
14236;DHT22;7202;50.718;7.072;2023-04-03T15:51:24;10.20;99.90
14236;DHT22;7202;50.718;7.072;2023-04-03T15:53:52;10.20;99.90
14236;DHT22;7202;50.718;7.072;2023-04-03T15:56:21;10.20;99.90
14236;DHT22;7202;50.718;7.072;2023-04-03T15:58:50;10.20;99.90
14236;DHT22;7202;50.718;7.072;2023-04-03T16:01:20;10.20;99.90
14236;DHT22;7202;50.718;7.072;2023-04-03T16:03:49;10.20;99.90
14236;DHT22;7202;50.718;7.072;2023-04-03T16:06:18;10.10;99.90
14236;DHT22;7202;50.718;7.072;2023-04-03T16:08:48;10.10;99.90
14236;DHT22;7202;50.718;7.072;2023-04-03T16:11:17;10.10;99.90
14236;DHT22;7202;50.718;7.072;2023-04-03T16:13:46;10.00;99.90
14236;DHT22;7202;50.718;7.072;2023-04-03T16:16:15;10.00;99.90
14236;DHT22;7202;50.718;7.072;2023-04-03T16:18:45;10.00;99.90
14236;DHT22;7202;50.718;7.072;2023-04-03T16:21:17;10.00;99.90
14236;DHT22;7202;50.718;7.072;2023-04-03T16:23:45;10.00;99.90
14236;DHT22;7202;50.718;7.072;2023-04-03T16:26:14;10.00;99.90
14236;DHT22;7202;50.718;7.072;2023-04-03T16:28:44;9.90;99.90
14236;DHT22;7202;50.718;7.072;2023-04-03T16:31:13;10.00;99.90
14236;DHT22;7202;50.718;7.072;2023-04-03T16:33:41;9.90;99.90
14236;DHT22;7202;50.718;7.072;2023-04-03T16:36:12;9.90;99.90
14236;DHT22;7202;50.718;7.072;2023-04-03T16:38:40;9.90;99.90